sensor_id;sensor_type;location;lat;lon;timestamp;pressure;altitude;pressure_sealevel;temperature;humidity
56811;BME280;42691;47.234;27.494;2023-01-28T00:00:54;99587.84;;;5.18;100.00
56811;BME280;42691;47.234;27.494;2023-01-28T00:03:20;99591.16;;;5.23;100.00
56811;BME280;42691;47.234;27.494;2023-01-28T00:05:45;99582.84;;;5.12;100.00
56811;BME280;42691;47.234;27.494;2023-01-28T00:08:11;99589.75;;;5.11;100.00
56811;BME280;42691;47.234;27.494;2023-01-28T00:10:37;99589.66;;;5.14;100.00
56811;BME280;42691;47.234;27.494;2023-01-28T00:13:05;99593.03;;;5.16;100.00
56811;BME280;42691;47.234;27.494;2023-01-28T00:15:30;99592.91;;;5.22;100.00
56811;BME280;42691;47.234;27.494;2023-01-28T00:17:56;99596.19;;;5.27;100.00
56811;BME280;42691;47.234;27.494;2023-01-28T00:20:21;99588.72;;;5.17;100.00
56811;BME280;42691;47.234;27.494;2023-01-28T00:22:47;99579.44;;;5.11;100.00
56811;BME280;42691;47.234;27.494;2023-01-28T00:25:13;99586.19;;;5.15;100.00
56811;BME280;42691;47.234;27.494;2023-01-28T00:27:39;99562.75;;;4.93;100.00
56811;BME280;42691;47.234;27.494;2023-01-28T00:30:05;99589.06;;;5.05;100.00
56811;BME280;42691;47.234;27.494;2023-01-28T00:32:31;99588.97;;;5.08;100.00
56811;BME280;42691;47.234;27.494;2023-01-28T00:34:56;99585.06;;;4.94;100.00
56811;BME280;42691;47.234;27.494;2023-01-28T00:37:22;99595.28;;;4.97;100.00
56811;BME280;42691;47.234;27.494;2023-01-28T00:39:48;99597.00;;;4.97;100.00
56811;BME280;42691;47.234;27.494;2023-01-28T00:42:14;99599.81;;;4.89;100.00
56811;BME280;42691;47.234;27.494;2023-01-28T00:44:40;99586.84;;;4.92;100.00
56811;BME280;42691;47.234;27.494;2023-01-28T00:47:05;99594.31;;;5.01;100.00
56811;BME280;42691;47.234;27.494;2023-01-28T00:49:30;99587.34;;;5.05;100.00
56811;BME280;42691;47.234;27.494;2023-01-28T00:51:56;99583.03;;;5.06;100.00
56811;BME280;42691;47.234;27.494;2023-01-28T00:54:21;99569.97;;;5.12;100.00
56811;BME280;42691;47.234;27.494;2023-01-28T00:56:47;99567.66;;;5.02;100.00
56811;BME280;42691;47.234;27.494;2023-01-28T00:59:12;99566.66;;;5.07;100.00
56811;BME280;42691;47.234;27.494;2023-01-28T01:01:38;99570.31;;;4.99;100.00
56811;BME280;42691;47.234;27.494;2023-01-28T01:04:03;99575.22;;;5.09;100.00
56811;BME280;42691;47.234;27.494;2023-01-28T01:06:34;99580.38;;;5.09;100.00
56811;BME280;42691;47.234;27.494;2023-01-28T01:09:02;99575.81;;;4.87;100.00
56811;BME280;42691;47.234;27.494;2023-01-28T01:11:28;99568.88;;;4.89;100.00
56811;BME280;42691;47.234;27.494;2023-01-28T01:13:56;99567.78;;;4.98;100.00
56811;BME280;42691;47.234;27.494;2023-01-28T01:16:24;99573.09;;;4.92;100.00
56811;BME280;42691;47.234;27.494;2023-01-28T01:18:51;99565.56;;;4.84;100.00
56811;BME280;42691;47.234;27.494;2023-01-28T01:21:19;99573.25;;;4.86;100.00
56811;BME280;42691;47.234;27.494;2023-01-28T01:23:46;99562.13;;;4.85;100.00
56811;BME280;42691;47.234;27.494;2023-01-28T01:26:12;99570.09;;;4.75;100.00
56811;BME280;42691;47.234;27.494;2023-01-28T01:28:38;99569.25;;;4.74;100.00
56811;BME280;42691;47.234;27.494;2023-01-28T01:31:10;99562.34;;;4.76;100.00
56811;BME280;42691;47.234;27.494;2023-01-28T01:33:36;99574.34;;;4.77;100.00
56811;BME280;42691;47.234;27.494;2023-01-28T01:36:04;99584.16;;;4.63;100.00
56811;BME280;42691;47.234;27.494;2023-01-28T01:38:29;99580.06;;;4.56;100.00
56811;BME280;42691;47.234;27.494;2023-01-28T01:40:59;99579.03;;;4.61;100.00
56811;BME280;42691;47.234;27.494;2023-01-28T01:43:45;99578.28;;;4.58;100.00
56811;BME280;42691;47.234;27.494;2023-01-28T01:46:12;99586.50;;;4.38;100.00
56811;BME280;42691;47.234;27.494;2023-01-28T01:48:38;99588.13;;;4.40;100.00
56811;BME280;42691;47.234;27.494;2023-01-28T01:51:10;99590.59;;;4.47;100.00
56811;BME280;42691;47.234;27.494;2023-01-28T01:53:40;99590.59;;;4.47;100.00
56811;BME280;42691;47.234;27.494;2023-01-28T01:56:10;99586.09;;;4.55;100.00
56811;BME280;42691;47.234;27.494;2023-01-28T01:58:40;99593.66;;;4.61;100.00
56811;BME280;42691;47.234;27.494;2023-01-28T02:01:06;99595.50;;;4.56;100.00
56811;BME280;42691;47.234;27.494;2023-01-28T02:04:03;99596.16;;;4.64;100.00
56811;BME280;42691;47.234;27.494;2023-01-28T02:06:30;99584.34;;;4.55;100.00
56811;BME280;42691;47.234;27.494;2023-01-28T02:08:56;99585.78;;;4.31;100.00
56811;BME280;42691;47.234;27.494;2023-01-28T02:11:25;99592.31;;;4.46;100.00
56811;BME280;42691;47.234;27.494;2023-01-28T02:13:53;99596.34;;;4.56;100.00
56811;BME280;42691;47.234;27.494;2023-01-28T02:16:21;99593.75;;;4.58;100.00
56811;BME280;42691;47.234;27.494;2023-01-28T02:18:47;99584.44;;;4.52;100.00
56811;BME280;42691;47.234;27.494;2023-01-28T02:26:57;99605.91;;;4.53;100.00
56811;BME280;42691;47.234;27.494;2023-01-28T02:32:19;99591.72;;;4.35;100.00
56811;BME280;42691;47.234;27.494;2023-01-28T02:37:20;99590.22;;;4.26;100.00
56811;BME280;42691;47.234;27.494;2023-01-28T02:39:50;99591.53;;;4.43;100.00
56811;BME280;42691;47.234;27.494;2023-01-28T02:42:27;99599.47;;;4.33;100.00
56811;BME280;42691;47.234;27.494;2023-01-28T02:44:54;99603.88;;;4.30;100.00
56811;BME280;42691;47.234;27.494;2023-01-28T02:47:19;99611.31;;;4.40;100.00
56811;BME280;42691;47.234;27.494;2023-01-28T02:50:07;99606.09;;;4.44;100.00
56811;BME280;42691;47.234;27.494;2023-01-28T03:01:08;99611.03;;;4.53;100.00
56811;BME280;42691;47.234;27.494;2023-01-28T03:03:45;99606.84;;;4.49;100.00
56811;BME280;42691;47.234;27.494;2023-01-28T03:06:18;99617.19;;;4.46;100.00
56811;BME280;42691;47.234;27.494;2023-01-28T03:08:47;99619.72;;;4.49;100.00
56811;BME280;42691;47.234;27.494;2023-01-28T03:11:41;99615.31;;;4.54;100.00
56811;BME280;42691;47.234;27.494;2023-01-28T03:14:27;99618.72;;;4.54;100.00
56811;BME280;42691;47.234;27.494;2023-01-28T03:20:11;99613.78;;;4.47;100.00
56811;BME280;42691;47.234;27.494;2023-01-28T03:23:02;99619.44;;;4.61;100.00
56811;BME280;42691;47.234;27.494;2023-01-28T03:25:47;99609.81;;;4.67;100.00
56811;BME280;42691;47.234;27.494;2023-01-28T03:28:34;99608.75;;;4.75;100.00
56811;BME280;42691;47.234;27.494;2023-01-28T03:31:20;99606.25;;;4.71;100.00
56811;BME280;42691;47.234;27.494;2023-01-28T03:34:06;99583.28;;;4.64;100.00
56811;BME280;42691;47.234;27.494;2023-01-28T03:36:52;99608.53;;;4.84;100.00
56811;BME280;42691;47.234;27.494;2023-01-28T03:39:24;99605.16;;;4.80;100.00
56811;BME280;42691;47.234;27.494;2023-01-28T03:42:05;99618.34;;;4.69;100.00
56811;BME280;42691;47.234;27.494;2023-01-28T03:44:31;99617.56;;;4.66;100.00
56811;BME280;42691;47.234;27.494;2023-01-28T03:47:16;99617.00;;;4.55;100.00
56811;BME280;42691;47.234;27.494;2023-01-28T03:49:44;99579.09;;;4.24;100.00
56811;BME280;42691;47.234;27.494;2023-01-28T03:52:11;99620.75;;;4.42;100.00
56811;BME280;42691;47.234;27.494;2023-01-28T03:54:37;99620.09;;;4.33;100.00
56811;BME280;42691;47.234;27.494;2023-01-28T03:57:02;99614.94;;;3.96;100.00
56811;BME280;42691;47.234;27.494;2023-01-28T03:59:28;99619.78;;;4.08;100.00
56811;BME280;42691;47.234;27.494;2023-01-28T04:01:53;99620.66;;;4.09;100.00
56811;BME280;42691;47.234;27.494;2023-01-28T04:04:20;99615.22;;;4.21;100.00
56811;BME280;42691;47.234;27.494;2023-01-28T04:06:53;99623.84;;;4.20;100.00
56811;BME280;42691;47.234;27.494;2023-01-28T04:09:20;99612.25;;;4.01;100.00
56811;BME280;42691;47.234;27.494;2023-01-28T04:11:46;99625.75;;;4.12;100.00
56811;BME280;42691;47.234;27.494;2023-01-28T04:14:12;99625.38;;;4.27;100.00
56811;BME280;42691;47.234;27.494;2023-01-28T04:16:39;99643.69;;;4.15;100.00
56811;BME280;42691;47.234;27.494;2023-01-28T04:19:05;99636.63;;;4.23;100.00
56811;BME280;42691;47.234;27.494;2023-01-28T04:21:31;99639.75;;;4.36;100.00
56811;BME280;42691;47.234;27.494;2023-01-28T04:23:56;99641.31;;;4.43;100.00
56811;BME280;42691;47.234;27.494;2023-01-28T04:26:22;99641.25;;;4.46;100.00
56811;BME280;42691;47.234;27.494;2023-01-28T04:28:47;99613.16;;;4.35;100.00
56811;BME280;42691;47.234;27.494;2023-01-28T04:31:12;99640.47;;;4.43;100.00
56811;BME280;42691;47.234;27.494;2023-01-28T04:33:38;99639.56;;;4.44;100.00
56811;BME280;42691;47.234;27.494;2023-01-28T04:36:03;99637.19;;;4.36;100.00
56811;BME280;42691;47.234;27.494;2023-01-28T04:38:29;99631.19;;;4.35;100.00
56811;BME280;42691;47.234;27.494;2023-01-28T04:40:54;99643.97;;;4.40;100.00
56811;BME280;42691;47.234;27.494;2023-01-28T04:43:20;99648.22;;;4.41;100.00
56811;BME280;42691;47.234;27.494;2023-01-28T04:45:46;99637.16;;;4.37;100.00
56811;BME280;42691;47.234;27.494;2023-01-28T04:48:13;99645.69;;;4.39;100.00
56811;BME280;42691;47.234;27.494;2023-01-28T04:50:39;99632.22;;;4.28;100.00
56811;BME280;42691;47.234;27.494;2023-01-28T04:53:04;99653.53;;;4.35;100.00
56811;BME280;42691;47.234;27.494;2023-01-28T04:55:30;99644.75;;;4.42;100.00
56811;BME280;42691;47.234;27.494;2023-01-28T04:57:55;99652.25;;;4.53;100.00
56811;BME280;42691;47.234;27.494;2023-01-28T05:00:21;99650.34;;;4.61;100.00
56811;BME280;42691;47.234;27.494;2023-01-28T05:02:47;99646.88;;;4.62;100.00
56811;BME280;42691;47.234;27.494;2023-01-28T05:05:12;99648.41;;;4.69;100.00
56811;BME280;42691;47.234;27.494;2023-01-28T05:07:37;99644.88;;;4.73;100.00
56811;BME280;42691;47.234;27.494;2023-01-28T05:10:03;99652.66;;;4.71;100.00
56811;BME280;42691;47.234;27.494;2023-01-28T05:12:29;99652.69;;;4.70;100.00
56811;BME280;42691;47.234;27.494;2023-01-28T05:14:57;99642.31;;;4.73;100.00
56811;BME280;42691;47.234;27.494;2023-01-28T05:17:25;99645.69;;;4.75;100.00
56811;BME280;42691;47.234;27.494;2023-01-28T05:19:50;99655.03;;;4.79;100.00
56811;BME280;42691;47.234;27.494;2023-01-28T05:22:16;99660.25;;;4.76;100.00
56811;BME280;42691;47.234;27.494;2023-01-28T05:24:41;99665.28;;;4.81;100.00
56811;BME280;42691;47.234;27.494;2023-01-28T05:27:07;99671.28;;;4.81;100.00
56811;BME280;42691;47.234;27.494;2023-01-28T05:29:32;99673.84;;;4.84;100.00
56811;BME280;42691;47.234;27.494;2023-01-28T05:31:58;99673.09;;;4.78;100.00
56811;BME280;42691;47.234;27.494;2023-01-28T05:34:23;99682.66;;;4.74;100.00
56811;BME280;42691;47.234;27.494;2023-01-28T05:36:49;99674.88;;;4.76;100.00
56811;BME280;42691;47.234;27.494;2023-01-28T05:39:14;99679.88;;;4.83;100.00
56811;BME280;42691;47.234;27.494;2023-01-28T05:41:40;99684.97;;;4.85;100.00
56811;BME280;42691;47.234;27.494;2023-01-28T05:44:05;99683.09;;;4.91;100.00
56811;BME280;42691;47.234;27.494;2023-01-28T05:46:31;99687.38;;;4.92;100.00
56811;BME280;42691;47.234;27.494;2023-01-28T05:48:56;99686.44;;;4.95;100.00
56811;BME280;42691;47.234;27.494;2023-01-28T05:51:21;99687.47;;;4.88;100.00
56811;BME280;42691;47.234;27.494;2023-01-28T05:53:47;99685.03;;;4.83;100.00
56811;BME280;42691;47.234;27.494;2023-01-28T05:56:12;99691.44;;;5.01;100.00
56811;BME280;42691;47.234;27.494;2023-01-28T05:58:38;99699.06;;;5.06;100.00
56811;BME280;42691;47.234;27.494;2023-01-28T06:01:03;99703.31;;;5.07;100.00
56811;BME280;42691;47.234;27.494;2023-01-28T06:03:29;99704.38;;;4.99;100.00
56811;BME280;42691;47.234;27.494;2023-01-28T06:05:54;99699.94;;;5.05;100.00
56811;BME280;42691;47.234;27.494;2023-01-28T06:08:20;99710.13;;;5.09;100.00
56811;BME280;42691;47.234;27.494;2023-01-28T06:10:45;99699.97;;;5.03;100.00
56811;BME280;42691;47.234;27.494;2023-01-28T06:13:11;99714.44;;;5.09;100.00
56811;BME280;42691;47.234;27.494;2023-01-28T06:15:36;99712.66;;;5.11;100.00
56811;BME280;42691;47.234;27.494;2023-01-28T06:18:02;99708.16;;;5.20;100.00
56811;BME280;42691;47.234;27.494;2023-01-28T06:20:28;99708.19;;;5.17;100.00
56811;BME280;42691;47.234;27.494;2023-01-28T06:22:53;99707.28;;;5.20;100.00
56811;BME280;42691;47.234;27.494;2023-01-28T06:25:19;99711.44;;;5.25;100.00
56811;BME280;42691;47.234;27.494;2023-01-28T06:27:44;99707.19;;;5.24;100.00
56811;BME280;42691;47.234;27.494;2023-01-28T06:30:11;99713.09;;;5.28;100.00
56811;BME280;42691;47.234;27.494;2023-01-28T06:32:36;99717.22;;;5.35;100.00
56811;BME280;42691;47.234;27.494;2023-01-28T06:35:02;99709.31;;;5.41;100.00
56811;BME280;42691;47.234;27.494;2023-01-28T06:37:28;99712.78;;;5.40;100.00
56811;BME280;42691;47.234;27.494;2023-01-28T06:39:53;99722.13;;;5.44;100.00
56811;BME280;42691;47.234;27.494;2023-01-28T06:42:18;99719.53;;;5.44;100.00
56811;BME280;42691;47.234;27.494;2023-01-28T06:44:44;99710.28;;;5.37;100.00
56811;BME280;42691;47.234;27.494;2023-01-28T06:47:09;99720.34;;;5.46;100.00
56811;BME280;42691;47.234;27.494;2023-01-28T06:49:36;99720.25;;;5.49;100.00
56811;BME280;42691;47.234;27.494;2023-01-28T06:52:02;99731.31;;;5.54;100.00
56811;BME280;42691;47.234;27.494;2023-01-28T06:54:28;99728.72;;;5.54;100.00
56811;BME280;42691;47.234;27.494;2023-01-28T06:56:54;99729.53;;;5.56;100.00
56811;BME280;42691;47.234;27.494;2023-01-28T06:59:19;99740.31;;;6.88;100.00
56811;BME280;42691;47.234;27.494;2023-01-28T07:01:45;99749.81;;;6.32;100.00
56811;BME280;42691;47.234;27.494;2023-01-28T07:04:10;99741.56;;;6.19;100.00
56811;BME280;42691;47.234;27.494;2023-01-28T07:06:36;99752.03;;;7.75;100.00
56811;BME280;42691;47.234;27.494;2023-01-28T07:09:01;99752.78;;;7.02;100.00
56811;BME280;42691;47.234;27.494;2023-01-28T07:11:27;99747.13;;;6.63;100.00
56811;BME280;42691;47.234;27.494;2023-01-28T07:13:52;99746.44;;;7.87;100.00
56811;BME280;42691;47.234;27.494;2023-01-28T07:16:18;99748.69;;;7.96;100.00
56811;BME280;42691;47.234;27.494;2023-01-28T07:18:43;99742.06;;;7.39;100.00
56811;BME280;42691;47.234;27.494;2023-01-28T07:21:09;99746.69;;;7.30;100.00
56811;BME280;42691;47.234;27.494;2023-01-28T07:23:34;99740.09;;;7.21;100.00
56811;BME280;42691;47.234;27.494;2023-01-28T07:26:03;99735.34;;;7.09;100.00
56811;BME280;42691;47.234;27.494;2023-01-28T07:28:29;99743.47;;;6.97;100.00
56811;BME280;42691;47.234;27.494;2023-01-28T07:30:54;99734.66;;;7.29;100.00
56811;BME280;42691;47.234;27.494;2023-01-28T07:33:20;99739.00;;;7.02;100.00
56811;BME280;42691;47.234;27.494;2023-01-28T07:35:47;99730.28;;;7.04;100.00
56811;BME280;42691;47.234;27.494;2023-01-28T07:38:13;99728.81;;;6.97;100.00
56811;BME280;42691;47.234;27.494;2023-01-28T07:40:38;99727.28;;;6.92;100.00
56811;BME280;42691;47.234;27.494;2023-01-28T07:43:07;99724.84;;;6.87;100.00
56811;BME280;42691;47.234;27.494;2023-01-28T07:45:33;99733.84;;;6.75;100.00
56811;BME280;42691;47.234;27.494;2023-01-28T07:48:04;99716.22;;;6.60;100.00
56811;BME280;42691;47.234;27.494;2023-01-28T07:50:32;99734.19;;;6.63;100.00
56811;BME280;42691;47.234;27.494;2023-01-28T07:53:01;99721.81;;;6.46;100.00
56811;BME280;42691;47.234;27.494;2023-01-28T07:55:26;99731.31;;;6.46;100.00
56811;BME280;42691;47.234;27.494;2023-01-28T07:57:54;99725.34;;;6.44;100.00
56811;BME280;42691;47.234;27.494;2023-01-28T08:00:21;99724.63;;;6.39;100.00
56811;BME280;42691;47.234;27.494;2023-01-28T08:02:47;99718.47;;;6.43;100.00
56811;BME280;42691;47.234;27.494;2023-01-28T08:05:17;99718.94;;;6.27;100.00
56811;BME280;42691;47.234;27.494;2023-01-28T08:07:44;99714.88;;;6.19;100.00
56811;BME280;42691;47.234;27.494;2023-01-28T08:10:14;99718.31;;;6.19;100.00
56811;BME280;42691;47.234;27.494;2023-01-28T08:12:40;99718.41;;;6.16;100.00
56811;BME280;42691;47.234;27.494;2023-01-28T08:15:06;99714.31;;;6.09;100.00
56811;BME280;42691;47.234;27.494;2023-01-28T08:17:32;99718.59;;;6.10;100.00
56811;BME280;42691;47.234;27.494;2023-01-28T08:19:57;99716.19;;;6.04;100.00
56811;BME280;42691;47.234;27.494;2023-01-28T08:22:26;99718.97;;;5.98;100.00
56811;BME280;42691;47.234;27.494;2023-01-28T08:24:52;99713.69;;;6.01;100.00
56811;BME280;42691;47.234;27.494;2023-01-28T08:27:17;99715.47;;;5.99;100.00
56811;BME280;42691;47.234;27.494;2023-01-28T08:29:43;99720.75;;;5.96;100.00
56811;BME280;42691;47.234;27.494;2023-01-28T08:32:09;99721.59;;;5.97;100.00
56811;BME280;42691;47.234;27.494;2023-01-28T08:34:34;99715.38;;;6.02;100.00
56811;BME280;42691;47.234;27.494;2023-01-28T08:37:00;99729.09;;;6.04;100.00
56811;BME280;42691;47.234;27.494;2023-01-28T08:39:25;99720.78;;;5.93;100.00
56811;BME280;42691;47.234;27.494;2023-01-28T08:41:51;99720.78;;;5.93;100.00
56811;BME280;42691;47.234;27.494;2023-01-28T08:44:16;99719.34;;;5.83;100.00
56811;BME280;42691;47.234;27.494;2023-01-28T08:46:42;99718.41;;;5.85;100.00
56811;BME280;42691;47.234;27.494;2023-01-28T08:49:07;99707.31;;;5.82;100.00
56811;BME280;42691;47.234;27.494;2023-01-28T08:51:33;99713.34;;;5.82;100.00
56811;BME280;42691;47.234;27.494;2023-01-28T08:53:58;99720.84;;;5.91;100.00
56811;BME280;42691;47.234;27.494;2023-01-28T08:56:24;99719.34;;;5.83;100.00
56811;BME280;42691;47.234;27.494;2023-01-28T08:58:50;99707.22;;;5.85;100.00
56811;BME280;42691;47.234;27.494;2023-01-28T09:01:15;99713.91;;;5.93;100.00
56811;BME280;42691;47.234;27.494;2023-01-28T09:03:40;99716.03;;;5.78;100.00
56811;BME280;42691;47.234;27.494;2023-01-28T09:06:06;99714.44;;;5.74;100.00
56811;BME280;42691;47.234;27.494;2023-01-28T09:08:31;99710.72;;;5.84;100.00
56811;BME280;42691;47.234;27.494;2023-01-28T09:10:58;99692.91;;;5.75;100.00
56811;BME280;42691;47.234;27.494;2023-01-28T09:13:24;99701.13;;;5.87;100.00
56811;BME280;42691;47.234;27.494;2023-01-28T09:15:49;99697.88;;;5.81;100.00
56811;BME280;42691;47.234;27.494;2023-01-28T09:18:16;99696.00;;;5.86;100.00
56811;BME280;42691;47.234;27.494;2023-01-28T09:20:41;99697.72;;;5.87;100.00
56811;BME280;42691;47.234;27.494;2023-01-28T09:23:07;99693.34;;;5.90;100.00
56811;BME280;42691;47.234;27.494;2023-01-28T09:25:33;99698.78;;;5.80;100.00
56811;BME280;42691;47.234;27.494;2023-01-28T09:28:00;99697.00;;;5.82;100.00
56811;BME280;42691;47.234;27.494;2023-01-28T09:30:26;99696.00;;;5.86;100.00
56811;BME280;42691;47.234;27.494;2023-01-28T09:32:53;99695.88;;;5.92;100.00
56811;BME280;42691;47.234;27.494;2023-01-28T09:35:19;99698.38;;;5.95;100.00
56811;BME280;42691;47.234;27.494;2023-01-28T09:37:45;99700.97;;;5.95;100.00
56811;BME280;42691;47.234;27.494;2023-01-28T09:40:18;99698.50;;;5.89;100.00
56811;BME280;42691;47.234;27.494;2023-01-28T09:45:24;99695.13;;;5.87;100.00
56811;BME280;42691;47.234;27.494;2023-01-28T09:47:54;99693.44;;;5.86;100.00
56811;BME280;42691;47.234;27.494;2023-01-28T09:50:41;99684.31;;;5.74;100.00
56811;BME280;42691;47.234;27.494;2023-01-28T09:53:52;99671.63;;;5.67;100.00
56811;BME280;42691;47.234;27.494;2023-01-28T09:56:15;99693.69;;;5.77;100.00
56811;BME280;42691;47.234;27.494;2023-01-28T09:58:45;99675.00;;;5.69;100.00
56811;BME280;42691;47.234;27.494;2023-01-28T10:11:53;99676.84;;;5.96;100.00
56811;BME280;42691;47.234;27.494;2023-01-28T10:17:07;99678.56;;;5.95;100.00
56811;BME280;42691;47.234;27.494;2023-01-28T10:19:43;99676.78;;;5.98;100.00
56811;BME280;42691;47.234;27.494;2023-01-28T10:22:36;99671.69;;;5.96;100.00
56811;BME280;42691;47.234;27.494;2023-01-28T10:25:07;99670.94;;;5.91;100.00
56811;BME280;42691;47.234;27.494;2023-01-28T10:27:40;99680.38;;;5.92;100.00
56811;BME280;42691;47.234;27.494;2023-01-28T10:30:26;99684.59;;;5.94;100.00
56811;BME280;42691;47.234;27.494;2023-01-28T10:32:59;99679.38;;;5.98;100.00
56811;BME280;42691;47.234;27.494;2023-01-28T10:35:26;99671.53;;;6.01;100.00
56811;BME280;42691;47.234;27.494;2023-01-28T10:38:01;99681.91;;;5.99;100.00
56811;BME280;42691;47.234;27.494;2023-01-28T10:40:32;99674.69;;;6.10;100.00
56811;BME280;42691;47.234;27.494;2023-01-28T10:42:57;99675.47;;;6.12;100.00
56811;BME280;42691;47.234;27.494;2023-01-28T10:45:27;99666.75;;;6.16;100.00
56811;BME280;42691;47.234;27.494;2023-01-28T10:48:01;99667.56;;;5.87;100.00
56811;BME280;42691;47.234;27.494;2023-01-28T10:50:29;99657.19;;;5.89;100.00
56811;BME280;42691;47.234;27.494;2023-01-28T10:52:59;99658.47;;;6.05;100.00
56811;BME280;42691;47.234;27.494;2023-01-28T10:55:28;99661.78;;;6.10;100.00
56811;BME280;42691;47.234;27.494;2023-01-28T10:57:55;99661.78;;;6.10;100.00
56811;BME280;42691;47.234;27.494;2023-01-28T11:00:27;99628.56;;;5.98;100.00
56811;BME280;42691;47.234;27.494;2023-01-28T11:02:55;99644.69;;;6.06;100.00
56811;BME280;42691;47.234;27.494;2023-01-28T11:05:23;99639.28;;;6.14;100.00
56811;BME280;42691;47.234;27.494;2023-01-28T11:08:14;99638.53;;;6.10;100.00
56811;BME280;42691;47.234;27.494;2023-01-28T11:10:40;99637.97;;;6.01;100.00
56811;BME280;42691;47.234;27.494;2023-01-28T11:13:27;99626.88;;;5.97;100.00
56811;BME280;42691;47.234;27.494;2023-01-28T11:16:00;99631.31;;;5.92;100.00
56811;BME280;42691;47.234;27.494;2023-01-28T11:18:32;99626.94;;;5.94;100.00
56811;BME280;42691;47.234;27.494;2023-01-28T11:21:12;99624.53;;;5.88;100.00
56811;BME280;42691;47.234;27.494;2023-01-28T11:23:51;99627.03;;;5.91;100.00
56811;BME280;42691;47.234;27.494;2023-01-28T11:26:21;99626.09;;;5.95;100.00
56811;BME280;42691;47.234;27.494;2023-01-28T11:28:49;99619.22;;;5.94;100.00
56811;BME280;42691;47.234;27.494;2023-01-28T11:31:16;99613.34;;;5.87;100.00
56811;BME280;42691;47.234;27.494;2023-01-28T11:33:50;99617.81;;;5.82;100.00
56811;BME280;42691;47.234;27.494;2023-01-28T11:36:27;99621.28;;;5.81;100.00
56811;BME280;42691;47.234;27.494;2023-01-28T11:41:33;99626.69;;;5.74;100.00
56811;BME280;42691;47.234;27.494;2023-01-28T11:44:10;99620.09;;;5.63;100.00
56811;BME280;42691;47.234;27.494;2023-01-28T11:49:13;99618.59;;;5.55;100.00
56811;BME280;42691;47.234;27.494;2023-01-28T11:54:43;99615.66;;;5.69;100.00
56811;BME280;42691;47.234;27.494;2023-01-28T12:00:41;99619.94;;;5.39;100.00
56811;BME280;42691;47.234;27.494;2023-01-28T12:02:58;99616.16;;;5.21;100.00
56811;BME280;42691;47.234;27.494;2023-01-28T12:05:51;99610.16;;;5.19;100.00
56811;BME280;42691;47.234;27.494;2023-01-28T12:08:27;99615.00;;;5.31;100.00
56811;BME280;42691;47.234;27.494;2023-01-28T12:11:23;99615.03;;;5.29;100.00
56811;BME280;42691;47.234;27.494;2023-01-28T12:17:24;99616.69;;;5.32;100.00
56811;BME280;42691;47.234;27.494;2023-01-28T12:20:00;99622.13;;;5.52;100.00
56811;BME280;42691;47.234;27.494;2023-01-28T12:22:33;99622.81;;;5.59;100.00
56811;BME280;42691;47.234;27.494;2023-01-28T12:25:14;99623.91;;;5.50;100.00
56811;BME280;42691;47.234;27.494;2023-01-28T12:41:19;99618.38;;;5.64;100.00
56811;BME280;42691;47.234;27.494;2023-01-28T12:46:57;99613.78;;;5.74;100.00
56811;BME280;42691;47.234;27.494;2023-01-28T12:52:04;99625.09;;;5.70;100.00
56811;BME280;42691;47.234;27.494;2023-01-28T12:54:41;99610.50;;;5.69;100.00
56811;BME280;42691;47.234;27.494;2023-01-28T12:57:18;99619.22;;;5.64;100.00
56811;BME280;42691;47.234;27.494;2023-01-28T12:59:56;99622.03;;;5.55;100.00
56811;BME280;42691;47.234;27.494;2023-01-28T13:05:20;99630.53;;;5.60;100.00
56811;BME280;42691;47.234;27.494;2023-01-28T13:08:08;99630.25;;;5.70;100.00
56811;BME280;42691;47.234;27.494;2023-01-28T13:10:40;99622.38;;;5.74;100.00
56811;BME280;42691;47.234;27.494;2023-01-28T13:13:46;99624.00;;;5.77;100.00
56811;BME280;42691;47.234;27.494;2023-01-28T13:16:07;99614.47;;;5.79;100.00
56811;BME280;42691;47.234;27.494;2023-01-28T13:23:50;99629.78;;;5.85;100.00
56811;BME280;42691;47.234;27.494;2023-01-28T13:28:48;99621.78;;;5.95;100.00
56811;BME280;42691;47.234;27.494;2023-01-28T13:31:17;99630.22;;;6.01;100.00
56811;BME280;42691;47.234;27.494;2023-01-28T13:36:27;99628.94;;;5.84;100.00
56811;BME280;42691;47.234;27.494;2023-01-28T13:44:02;99637.28;;;5.95;100.00
56811;BME280;42691;47.234;27.494;2023-01-28T13:46:29;99640.66;;;5.98;100.00
56811;BME280;42691;47.234;27.494;2023-01-28T13:48:57;99644.16;;;5.95;100.00
56811;BME280;42691;47.234;27.494;2023-01-28T13:51:30;99642.44;;;5.94;100.00
56811;BME280;42691;47.234;27.494;2023-01-28T13:54:04;99643.19;;;5.99;100.00
56811;BME280;42691;47.234;27.494;2023-01-28T13:56:35;99635.19;;;6.07;100.00
56811;BME280;42691;47.234;27.494;2023-01-28T14:18:35;99639.53;;;6.06;100.00
56811;BME280;42691;47.234;27.494;2023-01-28T14:21:10;99633.69;;;6.00;100.00
56811;BME280;42691;47.234;27.494;2023-01-28T14:23:37;99634.63;;;5.97;100.00
56811;BME280;42691;47.234;27.494;2023-01-28T14:31:54;99631.66;;;5.80;100.00
56811;BME280;42691;47.234;27.494;2023-01-28T14:36:53;99651.91;;;5.95;100.00
56811;BME280;42691;47.234;27.494;2023-01-28T14:39:24;99654.50;;;5.95;100.00
56811;BME280;42691;47.234;27.494;2023-01-28T14:41:52;99651.03;;;5.94;100.00
56811;BME280;42691;47.234;27.494;2023-01-28T14:44:29;99652.63;;;6.00;100.00
56811;BME280;42691;47.234;27.494;2023-01-28T14:50:06;99664.59;;;6.03;100.00
56811;BME280;42691;47.234;27.494;2023-01-28T14:55:32;99671.31;;;6.08;100.00
56811;BME280;42691;47.234;27.494;2023-01-28T14:58:05;99672.81;;;6.15;100.00
56811;BME280;42691;47.234;27.494;2023-01-28T15:00:33;99671.88;;;6.18;100.00
56811;BME280;42691;47.234;27.494;2023-01-28T15:02:59;99677.06;;;6.16;100.00
56811;BME280;42691;47.234;27.494;2023-01-28T15:05:27;99677.28;;;6.10;100.00